Time;durP1;ratioP1;P1;durP2;ratioP2;P2;SDS_P1;SDS_P2;PMS_P1;PMS_P2;Temp;Humidity;BMP_temperature;BMP_pressure;BME280_temperature;BME280_humidity;BME280_pressure;Samples;Min_cycle;Max_cycle;Signal;HPM_P1;HPM_P2
2021/07/26 00:03:47;;;;;;;1999.90;999.90;;;;;;;22.43;82.05;100568.91;15742224;28;20106;-66
2021/07/26 00:11:20;;;;;;;1999.90;999.90;;;;;;;22.26;82.64;100567.00;15724114;28;20044;-66
2021/07/26 00:18:53;;;;;;;1999.90;999.90;;;;;;;22.53;81.56;100561.50;15740528;28;20063;-66
2021/07/26 00:26:25;;;;;;;1999.90;999.90;;;;;;;22.26;82.38;100547.09;15740218;28;20042;-66
2021/07/26 00:34:11;;;;;;;1999.90;999.90;;;;;;;22.24;82.98;100538.19;15768492;28;20131;-65
2021/07/26 00:41:46;;;;;;;1999.90;999.90;;;;;;;22.09;83.72;100533.81;15785746;28;20043;-65
2021/07/26 00:49:22;;;;;;;1999.90;999.90;;;;;;;22.21;82.37;100541.06;15785107;28;20044;-65
2021/07/26 00:56:56;;;;;;;1999.90;999.90;;;;;;;22.36;81.90;100539.72;15784869;28;20056;-66
2021/07/26 01:04:30;;;;;;;1999.90;999.90;;;;;;;22.52;80.36;100556.25;15802569;28;20481;-66
2021/07/26 01:12:06;;;;;;;1999.90;999.90;;;;;;;22.31;81.42;100557.22;15767106;28;20566;-66
2021/07/26 01:19:39;;;;;;;1999.90;999.90;;;;;;;22.10;83.01;100556.16;15801177;28;20040;-66
2021/07/26 01:27:13;;;;;;;1999.90;999.90;;;;;;;21.95;84.32;100551.72;15778258;28;20055;-66
2021/07/26 01:34:45;;;;;;;1999.90;999.90;;;;;;;22.02;83.63;100560.22;15721358;28;20532;-66
2021/07/26 01:42:18;;;;;;;1999.90;999.90;;;;;;;22.12;82.45;100567.09;15743643;28;20078;-66
2021/07/26 01:50:02;;;;;;;1999.90;999.90;;;;;;;22.00;83.34;100562.66;15731978;28;20040;-65
2021/07/26 01:57:35;;;;;;;1999.90;999.90;;;;;;;21.82;84.36;100561.97;15749526;28;20044;-66
2021/07/26 02:05:09;;;;;;;1999.90;999.90;;;;;;;21.75;84.39;100562.78;15730795;28;20051;-66
2021/07/26 02:12:43;;;;;;;1999.90;999.90;;;;;;;22.00;83.43;100559.03;15730102;28;20040;-66
2021/07/26 02:20:16;;;;;;;1999.90;999.90;;;;;;;21.94;83.44;100550.13;15747427;28;20056;-66
2021/07/26 02:27:51;;;;;;;1999.90;999.90;;;;;;;22.22;81.56;100554.84;15758031;28;20038;-66
2021/07/26 02:35:23;;;;;;;1999.90;999.90;;;;;;;21.99;82.88;100546.00;15791423;28;20505;-66
2021/07/26 02:42:57;;;;;;;1999.90;999.90;;;;;;;;;;15822657;22;20378;-63
2021/07/26 02:50:29;;;;;;;1999.90;999.90;;;;;;;21.97;82.65;100540.75;15740869;28;20048;-62
2021/07/26 02:58:03;;;;;;;1999.90;999.90;;;;;;;22.23;81.52;100555.66;15703425;28;20086;-62
2021/07/26 03:05:36;;;;;;;1999.90;999.90;;;;;;;21.96;82.81;100556.19;15720526;28;20048;-62
2021/07/26 03:13:10;;;;;;;1999.90;999.90;;;;;;;22.13;81.49;100555.31;15719936;28;20043;-62
2021/07/26 03:20:42;;;;;;;1999.90;999.90;;;;;;;22.48;79.25;100567.63;15705172;28;20048;-62
2021/07/26 03:28:16;;;;;;;1999.90;999.90;;;;;;;22.57;79.20;100576.50;15713514;28;20059;-62
2021/07/26 03:35:48;;;;;;;1999.90;999.90;;;;;;;22.28;80.29;100580.78;15706980;28;20064;-62
2021/07/26 03:43:22;;;;;;;1999.90;999.90;;;;;;;22.36;80.55;100591.69;15719395;28;20041;-62
2021/07/26 03:50:54;;;;;;;1999.90;999.90;;;;;;;22.27;80.87;100588.50;15719104;28;20052;-62
2021/07/26 03:58:27;;;;;;;1999.90;999.90;;;;;;;21.95;83.59;100580.13;15718330;28;20037;-62
2021/07/26 04:06:04;;;;;;;1999.90;999.90;;;;;;;22.06;82.21;100589.44;15717300;28;20299;-62
2021/07/26 04:13:38;;;;;;;1999.90;999.90;;;;;;;22.24;81.71;100603.53;15701168;28;20071;-62
2021/07/26 04:21:11;;;;;;;1999.90;999.90;;;;;;;22.30;81.20;100613.25;15718342;28;20044;-62
2021/07/26 04:28:44;;;;;;;1999.90;999.90;;;;;;;22.28;81.73;100623.41;15751955;28;20037;-62
2021/07/26 04:36:17;;;;;;;1999.90;999.90;;;;;;;22.04;83.29;100620.25;15735055;28;20044;-62
2021/07/26 04:43:50;;;;;;;1999.90;999.90;;;;;;;21.89;85.29;100611.03;15716850;28;20041;-62
2021/07/26 04:51:23;;;;;;;1999.90;999.90;;;;;;;21.88;86.15;100611.41;15734064;28;20053;-62
2021/07/26 04:58:56;;;;;;;1999.90;999.90;;;;;;;22.17;83.40;100593.03;15734219;28;20045;-62
2021/07/26 05:06:28;;;;;;;1999.90;999.90;;;;;;;22.54;81.23;100593.59;15733756;28;20037;-62
2021/07/26 05:14:02;;;;;;;1999.90;999.90;;;;;;;22.84;80.16;100579.56;15734876;28;20511;-62
2021/07/26 05:21:34;;;;;;;1999.90;999.90;;;;;;;22.70;81.09;100580.44;15727740;28;20055;-62
2021/07/26 05:29:08;;;;;;;1999.90;999.90;;;;;;;22.67;80.88;100589.00;15745635;28;20041;-62
2021/07/26 05:36:41;;;;;;;1999.90;999.90;;;;;;;23.08;78.81;100591.94;15760337;28;20040;-62
2021/07/26 05:44:14;;;;;;;;;;;;;;;23.46;77.85;100601.28;15726762;28;20064;-62
2021/07/26 05:51:46;;;;;;;1999.90;999.90;;;;;;;23.55;77.85;100604.44;15759289;28;20003;-62
2021/07/26 05:59:21;;;;;;;1999.90;999.90;;;;;;;23.95;75.83;100593.38;15743540;28;20044;-62
2021/07/26 06:06:54;;;;;;;1999.90;999.90;;;;;;;24.06;75.66;100601.75;15724646;28;20036;-62
2021/07/26 06:14:28;;;;;;;1999.90;999.90;;;;;;;24.59;73.14;100603.03;15724682;28;20041;-62
2021/07/26 06:22:00;;;;;;;1999.90;999.90;;;;;;;25.45;68.15;100613.81;15724121;28;20070;-62
2021/07/26 06:29:33;;;;;;;1999.90;999.90;;;;;;;25.25;67.01;100600.28;15741527;28;20053;-62
2021/07/26 06:37:05;;;;;;;1999.90;999.90;;;;;;;25.74;64.81;100603.44;15740939;28;20092;-62
2021/07/26 06:44:40;;;;;;;1999.90;999.90;;;;;;;25.53;65.36;100604.66;15740614;28;20036;-62
2021/07/26 06:52:12;;;;;;;1999.90;999.90;;;;;;;25.60;65.16;100606.53;15725408;28;20079;-62
2021/07/26 06:59:46;;;;;;;;;;;;;;;25.80;63.82;100595.94;15742158;28;20674;-62
2021/07/26 07:07:18;;;;;;;1999.90;999.90;;;;;;;25.88;64.37;100606.00;15738752;28;19920;-62
2021/07/26 07:14:52;;;;;;;1999.90;999.90;;;;;;;25.98;63.61;100615.59;15722205;28;20036;-62
2021/07/26 07:22:25;;;;;;;1999.90;999.90;;;;;;;25.90;63.24;100626.34;15721403;28;20056;-62
2021/07/26 07:29:59;;;;;;;1999.90;999.90;;;;;;;26.03;63.27;100625.69;15738096;28;20566;-62
2021/07/26 07:37:31;;;;;;;1999.90;999.90;;;;;;;26.51;62.60;100621.38;15752738;28;20076;-62
2021/07/26 07:45:07;;;;;;;1999.90;999.90;;;;;;;26.55;62.42;100627.78;15737080;28;20045;-62
2021/07/26 07:52:40;;;;;;;1999.90;999.90;;;;;;;26.94;64.58;100639.09;15737211;28;20041;-62
2021/07/26 08:00:16;;;;;;;1999.90;999.90;;;;;;;26.26;62.75;100647.63;15718314;28;20106;-62
2021/07/26 08:07:48;;;;;;;1999.90;999.90;;;;;;;27.47;60.38;100659.81;15736583;28;20044;-62
2021/07/26 08:15:25;;;;;;;1999.90;999.90;;;;;;;27.69;59.62;100657.19;15718907;28;20163;-62
2021/07/26 08:22:58;;;;;;;1999.90;999.90;;;;;;;29.07;57.05;100656.25;15736733;28;20056;-62
2021/07/26 08:30:33;;;;;;;1999.90;999.90;;;;;;;28.68;56.97;100662.03;15735435;28;20044;-63
2021/07/26 08:38:09;;;;;;;1999.90;999.90;;;;;;;28.42;57.17;100658.31;15716903;28;20135;-63
2021/07/26 08:45:44;;;;;;;1999.90;999.90;;;;;;;28.65;56.45;100657.19;15723008;22;20060;-72
2021/07/26 08:53:19;;;;;;;1999.90;999.90;;;;;;;29.01;56.44;100661.81;15747184;28;20083;-72
2021/07/26 09:00:54;;;;;;;1999.90;999.90;;;;;;;29.39;54.17;100658.00;15736232;28;20070;-72
2021/07/26 09:08:32;;;;;;;1999.90;999.90;;;;;;;29.47;55.27;100650.75;15762315;22;20071;-66
2021/07/26 09:16:16;;;;;;;1999.90;999.90;;;;;;;29.84;53.41;100655.56;15772917;28;20450;-65
2021/07/26 09:24:03;;;;;;;1999.90;999.90;;;;;;;30.14;52.53;100667.66;15805170;28;20496;-65
2021/07/26 09:31:56;;;;;;;1999.90;999.90;;;;;;;31.51;49.84;100661.63;15822941;28;20047;-65
2021/07/26 09:39:29;;;;;;;1999.90;999.90;;;;;;;31.73;50.30;100658.59;15787627;28;20131;-65
2021/07/26 09:47:21;;;;;;;1999.90;999.90;;;;;;;32.59;47.08;100661.19;15794782;28;20028;-66
2021/07/26 09:54:55;;;;;;;1999.90;999.90;;;;;;;32.82;46.33;100654.66;15804464;28;20131;-65
2021/07/26 10:02:33;;;;;;;1999.90;999.90;;;;;;;32.79;44.55;100663.50;15817717;28;20043;-65
2021/07/26 10:10:06;;;;;;;1999.90;999.90;;;;;;;34.30;42.40;100663.88;15812582;28;20148;-65
2021/07/26 10:17:42;;;;;;;1999.90;999.90;;;;;;;34.52;39.93;100667.16;15793754;28;20072;-66
2021/07/26 10:25:18;;;;;;;1999.90;999.90;;;;;;;34.76;40.34;100664.13;15813278;28;20070;-66
2021/07/26 10:32:58;;;;;;;1999.90;999.90;;;;;;;35.62;39.34;100656.13;15811568;28;20048;-65
2021/07/26 10:40:31;;;;;;;1999.90;999.90;;;;;;;35.70;37.55;100639.88;15794193;28;20036;-65
2021/07/26 10:48:36;;;;;;;1999.90;999.90;;;;;;;35.91;37.95;100632.75;15792046;28;20040;-65
2021/07/26 10:56:11;;;;;;;1999.90;999.90;;;;;;;37.02;37.83;100625.53;15792765;28;20075;-65
2021/07/26 11:03:44;;;;;;;1999.90;999.90;;;;;;;35.41;36.65;100632.16;15812567;28;20044;-65
2021/07/26 11:11:40;;;;;;;1999.90;999.90;;;;;;;35.16;38.56;100619.16;15811232;28;20040;-66
2021/07/26 11:19:38;;;;;;;1999.90;999.90;;;;;;;37.24;34.30;100625.63;15811696;28;20044;-65
2021/07/26 11:27:15;;;;;;;1999.90;999.90;;;;;;;36.19;34.74;100606.09;15792550;28;20488;-65
2021/07/26 11:34:53;;;;;;;1999.90;999.90;;;;;;;36.83;33.73;100596.88;15774114;28;20048;-65
2021/07/26 11:42:27;;;;;;;1999.90;999.90;;;;;;;36.72;34.26;100606.28;15789103;28;20036;-65
2021/07/26 11:50:01;;;;;;;1999.90;999.90;;;;;;;37.60;31.43;100603.56;15773047;28;20044;-64
2021/07/26 11:57:33;;;;;;;1999.90;999.90;;;;;;;36.72;34.96;100606.28;15789480;28;20048;-64
2021/07/26 12:05:09;;;;;;;1999.90;999.90;;;;;;;37.10;34.44;100612.06;15807141;28;20101;-65
2021/07/26 12:12:45;;;;;;;1999.90;999.90;;;;;;;35.99;35.11;100610.69;15787702;28;20393;-65
2021/07/26 12:20:22;;;;;;;1999.90;999.90;;;;;;;35.80;37.25;100591.97;15803656;28;20044;-65
2021/07/26 12:28:01;;;;;;;1999.90;999.90;;;;;;;39.58;31.25;100586.19;15757216;28;20059;-65
2021/07/26 12:35:36;;;;;;;1999.90;999.90;;;;;;;40.73;30.08;100581.31;15724780;28;20051;-65
2021/07/26 12:43:11;;;;;;;1999.90;999.90;;;;;;;42.42;28.16;100579.81;15725657;28;20426;-65
2021/07/26 12:50:46;;;;;;;1999.90;999.90;;;;;;;43.07;25.62;100572.47;15724263;28;20084;-65
2021/07/26 12:58:19;;;;;;;1999.90;999.90;;;;;;;41.53;25.97;100566.00;15724642;28;20056;-66
2021/07/26 13:05:53;;;;;;;1999.90;999.90;;;;;;;36.14;32.39;100555.38;15741206;28;20056;-65
2021/07/26 13:13:26;;;;;;;1999.90;999.90;;;;;;;40.53;29.13;100558.41;15723418;28;20196;-65
2021/07/26 13:20:59;;;;;;;1999.90;999.90;;;;;;;36.68;34.31;100547.63;15725753;28;20068;-65
2021/07/26 13:28:32;;;;;;;1999.90;999.90;;;;;;;33.53;34.17;100540.34;15777317;28;20206;-66
2021/07/26 13:36:07;;;;;;;1999.90;999.90;;;;;;;33.94;32.71;100534.78;15793331;28;20044;-65
2021/07/26 13:43:40;;;;;;;1999.90;999.90;;;;;;;34.46;34.98;100517.75;15820461;28;20062;-65
2021/07/26 13:51:13;;;;;;;1999.90;999.90;;;;;;;34.88;32.55;100523.09;15818686;28;20404;-66
2021/07/26 13:58:45;;;;;;;1999.90;999.90;;;;;;;34.86;32.09;100511.19;15818468;28;20036;-64
2021/07/26 14:06:19;;;;;;;1999.90;999.90;;;;;;;34.23;31.32;100511.59;15801156;28;20408;-65
2021/07/26 14:13:51;;;;;;;1999.90;999.90;;;;;;;33.96;32.77;100511.94;15799799;28;20097;-65
2021/07/26 14:21:25;;;;;;;1999.90;999.90;;;;;;;34.16;32.84;100517.78;15799532;28;20115;-64
2021/07/26 14:28:57;;;;;;;1999.90;999.90;;;;;;;33.70;33.46;100523.31;15777791;28;20123;-65
2021/07/26 14:36:31;;;;;;;1999.90;999.90;;;;;;;33.62;32.76;100520.00;15733023;28;20094;-65
2021/07/26 14:44:04;;;;;;;1999.90;999.90;;;;;;;33.58;36.08;100533.88;15742448;22;20056;-61
2021/07/26 14:51:37;;;;;;;1999.90;999.90;;;;;;;33.17;37.63;100529.88;15737596;28;20163;-62
2021/07/26 14:59:10;;;;;;;1999.90;999.90;;;;;;;33.11;40.02;100520.28;15721017;28;20117;-62
2021/07/26 15:06:44;;;;;;;1999.90;999.90;;;;;;;33.15;36.16;100512.25;15739569;28;20115;-62
2021/07/26 15:14:16;;;;;;;1999.90;999.90;;;;;;;33.06;41.50;100513.13;15740597;28;20374;-62
2021/07/26 15:21:50;;;;;;;1999.90;999.90;;;;;;;32.47;36.33;100503.38;15720315;28;20052;-62
2021/07/26 15:29:22;;;;;;;1999.90;999.90;;;;;;;32.39;36.78;100505.81;15737218;28;20060;-62
2021/07/26 15:36:56;;;;;;;1999.90;999.90;;;;;;;32.06;37.78;100502.91;15737913;28;20425;-62
2021/07/26 15:44:28;;;;;;;1999.90;999.90;;;;;;;31.78;38.59;100514.53;15737283;28;20063;-62
2021/07/26 15:52:02;;;;;;;1999.90;999.90;;;;;;;31.73;38.97;100512.28;15736741;28;20495;-62
2021/07/26 15:59:34;;;;;;;1999.90;999.90;;;;;;;31.69;39.52;100514.56;15717669;28;20067;-63
2021/07/26 16:07:07;;;;;;;1999.90;999.90;;;;;;;31.44;39.44;100507.06;15717594;28;20044;-63
2021/07/26 16:14:40;;;;;;;1999.90;999.90;;;;;;;31.19;39.52;100525.47;15735133;28;20113;-62
2021/07/26 16:22:13;;;;;;;1999.90;999.90;;;;;;;31.00;39.80;100516.00;15734834;28;20041;-62
2021/07/26 16:29:46;;;;;;;1999.90;999.90;;;;;;;30.62;39.02;100519.28;15690530;28;20041;-62
2021/07/26 16:37:19;;;;;;;1999.90;999.90;;;;;;;30.48;38.39;100511.25;15672698;28;20274;-62
2021/07/26 16:44:52;;;;;;;1999.90;999.90;;;;;;;30.58;40.57;100510.00;15671985;28;20512;-62
2021/07/26 16:52:25;;;;;;;1999.90;999.90;;;;;;;30.29;40.40;100503.84;15672425;28;20600;-62
2021/07/26 16:59:58;;;;;;;1999.90;999.90;;;;;;;30.15;39.13;100513.88;15671448;28;20041;-62
2021/07/26 17:07:31;;;;;;;1999.90;999.90;;;;;;;30.14;39.76;100524.59;15671504;28;20051;-62
2021/07/26 17:15:04;;;;;;;1999.90;999.90;;;;;;;30.04;41.03;100525.00;15662652;28;20170;-62
2021/07/26 17:22:39;;;;;;;1999.90;999.90;;;;;;;29.93;40.20;100524.63;15665813;28;20556;-62
2021/07/26 17:30:12;;;;;;;1999.90;999.90;;;;;;;29.78;40.36;100530.13;15730387;28;20544;-62
2021/07/26 17:37:49;;;;;;;1999.90;999.90;;;;;;;29.77;40.60;100523.56;15744328;28;20561;-62
2021/07/26 17:45:21;;;;;;;1999.90;999.90;;;;;;;29.57;40.81;100523.13;15726555;28;20051;-62
2021/07/26 17:52:55;;;;;;;1999.90;999.90;;;;;;;29.67;41.54;100506.72;15744409;28;20044;-62
2021/07/26 18:00:27;;;;;;;1999.90;999.90;;;;;;;29.56;41.71;100493.56;15725496;28;20041;-65
2021/07/26 18:08:03;;;;;;;1999.90;999.90;;;;;;;29.45;41.53;100518.22;15725202;28;20124;-62
2021/07/26 18:15:36;;;;;;;1999.90;999.90;;;;;;;29.28;42.13;100521.31;15708094;28;20036;-63
2021/07/26 18:23:09;;;;;;;1999.90;999.90;;;;;;;29.05;42.62;100515.97;15723014;28;20064;-63
2021/07/26 18:30:41;;;;;;;1999.90;999.90;;;;;;;29.14;43.74;100503.78;15690403;28;20170;-63
2021/07/26 18:38:15;;;;;;;1999.90;999.90;;;;;;;28.80;43.76;100518.91;15661647;28;20391;-63
2021/07/26 18:45:47;;;;;;;1999.90;999.90;;;;;;;28.62;44.11;100517.47;15661119;28;20047;-63
2021/07/26 18:53:21;;;;;;;1999.90;999.90;;;;;;;28.41;45.02;100521.06;15661153;28;20128;-62
2021/07/26 19:00:53;;;;;;;1999.90;999.90;;;;;;;27.85;46.12;100533.06;15660067;28;20127;-63
2021/07/26 19:08:27;;;;;;;;;;;;;;;27.74;46.31;100539.13;15677780;28;20041;-63
2021/07/26 19:15:59;;;;;;;1999.90;999.90;;;;;;;27.53;47.18;100565.53;15642822;28;20010;-62
2021/07/26 19:23:33;;;;;;;1999.90;999.90;;;;;;;27.42;47.26;100600.22;15677128;28;20533;-62
2021/07/26 19:31:05;;;;;;;1999.90;999.90;;;;;;;27.32;47.90;100627.91;15731854;28;20435;-62
2021/07/26 19:38:39;;;;;;;;;;;;;;;27.31;47.90;100640.63;15719868;28;20098;-62
2021/07/26 19:46:11;;;;;;;1999.90;999.90;;;;;;;27.33;48.35;100643.84;15718938;28;19970;-62
2021/07/26 19:53:45;;;;;;;;;;;;;;;27.01;48.85;100636.06;15736942;28;20075;-62
2021/07/26 20:01:17;;;;;;;1999.90;999.90;;;;;;;26.80;50.14;100635.78;15718414;28;19928;-62
2021/07/26 20:08:50;;;;;;;1999.90;999.90;;;;;;;26.80;51.09;100633.75;15737130;28;20539;-62
2021/07/26 20:16:23;;;;;;;1999.90;999.90;;;;;;;26.90;50.18;100637.59;15736642;28;20334;-62
2021/07/26 20:23:56;;;;;;;;;;;;;;;26.73;51.75;100626.13;15717938;28;20040;-62
2021/07/26 20:31:28;;;;;;;1999.90;999.90;;;;;;;26.29;53.57;100636.13;15676982;28;19940;-62
2021/07/26 20:39:02;;;;;;;1999.90;999.90;;;;;;;26.00;53.94;100633.09;15673343;28;20053;-62
2021/07/26 20:46:34;;;;;;;1999.90;999.90;;;;;;;25.55;55.73;100645.00;15637745;28;20041;-63
2021/07/26 20:54:07;;;;;;;1999.90;999.90;;;;;;;25.33;56.85;100649.53;15671920;28;20049;-62
2021/07/26 21:01:40;;;;;;;1999.90;999.90;;;;;;;25.39;57.21;100662.03;15701678;28;20044;-62
2021/07/26 21:09:14;;;;;;;1999.90;999.90;;;;;;;25.34;56.73;100651.13;15734250;28;20049;-63
2021/07/26 21:17:00;;;;;;;1999.90;999.90;;;;;;;25.04;57.86;100652.06;15734111;28;20052;-63
2021/07/26 21:24:34;;;;;;;1999.90;999.90;;;;;;;24.89;58.06;100651.44;15734027;28;20114;-63
2021/07/26 21:32:07;;;;;;;1999.90;999.90;;;;;;;24.71;59.69;100660.31;15714784;28;20132;-63
2021/07/26 21:39:41;;;;;;;1999.90;999.90;;;;;;;24.46;60.36;100657.84;15731655;28;20047;-63
2021/07/26 21:47:14;;;;;;;1999.90;999.90;;;;;;;24.66;58.66;100675.06;15714589;28;20123;-63
2021/07/26 21:54:47;;;;;;;;;;;;;;;24.68;58.54;100684.00;15715198;28;20594;-63
2021/07/26 22:02:20;;;;;;;1999.90;999.90;;;;;;;24.32;60.31;100683.72;15723896;28;19920;-63
2021/07/26 22:09:54;;;;;;;1999.90;999.90;;;;;;;24.01;61.70;100684.91;15742714;28;20040;-63
2021/07/26 22:17:28;;;;;;;1999.90;999.90;;;;;;;23.84;62.31;100689.56;15724418;28;20040;-63
2021/07/26 22:25:01;;;;;;;1999.90;999.90;;;;;;;23.68;63.39;100686.50;15719277;28;20072;-63
2021/07/26 22:32:33;;;;;;;1999.90;999.90;;;;;;;23.57;63.88;100681.72;15661746;28;20045;-63
2021/07/26 22:40:08;;;;;;;1999.90;999.90;;;;;;;23.52;64.16;100698.44;15679847;28;20045;-63
2021/07/26 22:47:41;;;;;;;1999.90;999.90;;;;;;;23.40;63.70;100698.97;15643856;28;20378;-63
2021/07/26 22:55:14;;;;;;;1999.90;999.90;;;;;;;23.25;64.45;100695.47;15667274;28;20053;-63
2021/07/26 23:02:46;;;;;;;1999.90;999.90;;;;;;;23.39;64.67;100678.22;15688235;28;20048;-63
2021/07/26 23:10:20;;;;;;;1999.90;999.90;;;;;;;23.10;66.37;100679.72;15713698;28;20106;-63
2021/07/26 23:17:52;;;;;;;1999.90;999.90;;;;;;;23.27;65.44;100675.91;15706184;28;20103;-63
2021/07/26 23:25:26;;;;;;;1999.90;999.90;;;;;;;22.86;66.43;100670.97;15713637;28;20094;-63
2021/07/26 23:32:58;;;;;;;1999.90;999.90;;;;;;;22.96;66.62;100672.94;15673371;28;20106;-63
2021/07/26 23:40:31;;;;;;;1999.90;999.90;;;;;;;22.84;67.46;100667.75;15657398;28;20103;-63
2021/07/26 23:48:04;;;;;;;1999.90;999.90;;;;;;;22.82;67.64;100658.75;15687118;28;20045;-62
2021/07/26 23:55:38;;;;;;;1999.90;999.90;;;;;;;22.87;67.30;100649.84;15718659;28;20128;-63
